Главная страница
METAR-TAF:

METAR-TAF

Аэропорты :

Ljungbyhed, Швеция

широта: 56-04N, долгота: 013-12E, высота над уровнем моря: 43 м

Текущие метеонаблюдения

Эта сводка был подготовлена 20 минут назад, в 01:50 UTC
Ветер 4 Узел от восточный
Температура 1°C
Влажность 100%
Давление 1002 hPa
Видимость: 0500 м
туман

METAR: ESTL 130150Z AUTO 10004KT 0500 R29L/P2000D FG NCD 01/01 Q1002

Время: 03:10 (02:10 UTC)

Прогноз

Эта сводка был подготовлена 14 часа и 58 минут назад, в 11:12 UTC
Прогноз действительный с 12-го 12 UTC до 12-го 16 UTC
Ветер 10 Узел от юго-юго-восточный
Видимость 10 км и более
Рассеянная облачность на высоте 2000 фута
временами
С 12-го 12 UTC до 12-го 13 UTC
Рассеянная облачность на высоте 700 фута
дождь, Морось
временами
С 12-го 13 UTC до 12-го 15 UTC
Рассеянная облачность на высоте 1200 фута

TAF: ESTL 121112Z 1212/1216 16010KT 9999 BKN020 TEMPO 1212/1213 RADZ BKN007 TEMPO 1213/1215 BKN012

Метеонаблюдения и прогнозы для более 4000 аэропортов (сводки METAR и TAF).

Имеющиеся станции представлены на карте желтыми и красными точками.

Чтобы увидеть название станции, наведите на нее мышь.

Затем щелкните, чтобы увидеть метеонаблюдения и метеопрогнозы.

Управление картой: чтобы увеличить масштаб, щелкните зеленые кнопки с черным крестиком; чтобы уменьшить масштаб, щелкните зеленую кнопку с тире; для просмотра соседних карт щелкайте зеленые стрелки.


METAR-TAF: